Time;durP1;ratioP1;P1;durP2;ratioP2;P2;SDS_P1;SDS_P2;PMS_P1;PMS_P2;Temp;Humidity;BMP_temperature;BMP_pressure;BME280_temperature;BME280_humidity;BME280_pressure;Samples;Min_cycle;Max_cycle;Signal;HPM_P1;HPM_P2
2023/12/13 00:00:27;;;;;;;66.28;30.70;;;;;;;2.32;96.65;99717.63;5127594;28;20047;-71
2023/12/13 00:02:53;;;;;;;59.55;29.08;;;;;;;2.44;96.48;99708.72;5127374;28;20076;-71
2023/12/13 00:05:20;;;;;;;65.13;30.27;;;;;;;2.41;96.64;99704.44;5128504;28;20053;-72
2023/12/13 00:07:46;;;;;;;56.13;29.27;;;;;;;2.34;96.29;99702.28;5128104;28;20103;-72
2023/12/13 00:10:13;;;;;;;66.97;31.13;;;;;;;2.30;96.60;99701.66;5128612;28;20067;-72
2023/12/13 00:12:40;;;;;;;63.80;29.00;;;;;;;2.23;96.35;99695.03;5128840;28;20071;-72
2023/12/13 00:15:08;;;;;;;60.75;27.67;;;;;;;2.23;96.59;99678.13;5129425;28;20044;-73
2023/12/13 00:17:34;;;;;;;50.53;27.23;;;;;;;2.23;96.69;99683.47;5129268;28;20043;-72
2023/12/13 00:20:05;;;;;;;59.40;28.92;;;;;;;2.26;96.74;99677.94;5129188;28;20086;-73
2023/12/13 00:22:32;;;;;;;52.90;26.92;;;;;;;2.20;96.69;99676.53;5128560;28;20056;-71
2023/12/13 00:24:59;;;;;;;59.03;28.63;;;;;;;2.21;96.70;99685.41;5128134;28;20054;-72
2023/12/13 00:27:26;;;;;;;55.25;28.73;;;;;;;2.21;96.89;99672.88;5128243;28;20044;-69
2023/12/13 00:29:53;;;;;;;59.25;29.17;;;;;;;2.20;96.69;99676.53;5127958;28;20044;-73
2023/12/13 00:32:19;;;;;;;65.50;31.38;;;;;;;2.20;97.04;99667.66;5109342;28;20043;-72
2023/12/13 00:34:46;;;;;;;69.22;31.65;;;;;;;2.21;96.77;99664.88;5127651;28;21060;-73
2023/12/13 00:37:13;;;;;;;69.00;31.75;;;;;;;2.13;96.64;99656.53;5119671;27;20054;-73
2023/12/13 00:39:39;;;;;;;57.95;31.60;;;;;;;2.10;97.04;99656.75;5141561;27;20044;-73
2023/12/13 00:42:06;;;;;;;68.78;33.72;;;;;;;2.09;97.25;99652.38;5127591;28;20134;-72
2023/12/13 00:44:34;;;;;;;66.75;33.47;;;;;;;2.11;97.20;99653.97;5127169;28;20043;-72
2023/12/13 00:47:01;;;;;;;74.38;34.00;;;;;;;2.04;97.13;99652.66;5127284;28;20051;-73
2023/12/13 00:49:27;;;;;;;74.13;32.70;;;;;;;2.08;97.33;99658.69;5127583;28;20040;-73
2023/12/13 00:51:54;;;;;;;68.15;34.00;;;;;;;2.09;97.04;99660.38;5126860;28;20150;-73
2023/12/13 00:54:21;;;;;;;70.07;34.17;;;;;;;2.08;97.05;99651.50;5127031;28;20458;-72
2023/12/13 00:56:47;;;;;;;74.40;33.40;;;;;;;2.03;97.01;99644.75;5126522;28;20039;-73
2023/12/13 00:59:14;;;;;;;69.47;32.92;;;;;;;2.06;97.04;99660.59;5126973;28;20047;-73
2023/12/13 01:01:43;;;;;;;76.70;33.65;;;;;;;1.99;97.16;99659.31;5126114;28;20048;-73
2023/12/13 01:04:10;;;;;;;70.95;32.08;;;;;;;1.97;97.44;99650.53;5108166;28;20051;-72
2023/12/13 01:06:37;;;;;;;67.68;31.55;;;;;;;1.96;97.21;99655.03;5126425;28;20047;-72
2023/12/13 01:09:03;;;;;;;69.82;32.72;;;;;;;1.94;97.15;99648.94;5126169;28;20063;-72
2023/12/13 01:11:30;;;;;;;75.25;31.90;;;;;;;1.92;97.38;99647.34;5124981;28;20093;-72
2023/12/13 01:13:57;;;;;;;68.03;32.10;;;;;;;1.95;97.38;99644.44;5124558;28;20077;-71
2023/12/13 01:16:23;;;;;;;73.15;31.25;;;;;;;1.98;97.45;99641.53;5125660;28;20048;-75
2023/12/13 01:18:50;;;;;;;74.72;32.33;;;;;;;1.99;97.28;99641.47;5125481;28;20040;-72
2023/12/13 01:21:17;;;;;;;67.00;30.98;;;;;;;1.92;96.96;99642.84;5124573;28;20116;-72
2023/12/13 01:23:43;;;;;;;69.95;30.35;;;;;;;1.99;97.26;99645.94;5120926;28;20048;-74
2023/12/13 01:26:10;;;;;;;70.60;30.02;;;;;;;1.95;96.96;99631.06;5124182;28;20047;-72
2023/12/13 01:28:38;;;;;;;68.22;29.70;;;;;;;1.97;97.31;99629.13;5106902;28;20510;-72
2023/12/13 01:31:07;;;;;;;75.32;30.27;;;;;;;2.01;97.09;99636.00;5125297;28;20115;-74
2023/12/13 01:33:34;;;;;;;72.68;31.50;;;;;;;2.08;96.48;99634.59;5127514;28;20050;-72
2023/12/13 01:36:02;;;;;;;71.95;31.40;;;;;;;2.00;97.08;99627.13;5128962;28;20052;-72
2023/12/13 01:38:29;;;;;;;75.07;31.88;;;;;;;2.01;96.94;99620.81;5128508;28;20040;-74
2023/12/13 01:40:55;;;;;;;68.20;30.98;;;;;;;2.02;96.96;99616.31;5128399;28;20047;-72
2023/12/13 01:43:39;;;;;;;70.90;30.70;;;;;;;2.07;97.47;99608.78;5125878;28;20047;-73
2023/12/13 01:46:07;;;;;;;66.97;30.83;;;;;;;2.03;97.17;99618.00;5124755;28;20073;-73
2023/12/13 01:48:34;;;;;;;81.43;33.78;;;;;;;2.03;97.48;99618.00;5121757;28;20122;-73
2023/12/13 01:51:01;;;;;;;69.07;32.58;;;;;;;2.08;97.41;99616.75;5121693;28;20526;-72
2023/12/13 01:53:29;;;;;;;75.28;34.28;;;;;;;2.08;97.37;99616.75;5119926;28;20453;-71
2023/12/13 01:55:56;;;;;;;72.20;32.40;;;;;;;2.12;97.23;99617.38;5121358;28;20096;-71
2023/12/13 01:58:24;;;;;;;74.80;33.55;;;;;;;2.11;97.68;99616.50;5120996;28;20044;-72
2023/12/13 02:00:52;;;;;;;69.95;32.38;;;;;;;2.12;97.20;99617.38;5120565;28;20047;-73
2023/12/13 02:03:21;;;;;;;68.13;32.97;;;;;;;2.15;97.14;99615.31;5119287;27;20046;-71
2023/12/13 02:09:28;;;;;;;67.93;33.67;;;;;;;2.18;96.85;99616.94;5118022;28;20050;-71
2023/12/13 02:11:55;;;;;;;66.60;31.48;;;;;;;2.24;97.28;99610.28;5119136;28;20116;-72
2023/12/13 02:14:25;;;;;;;69.63;31.67;;;;;;;2.28;96.71;99612.63;5118522;28;20100;-71
2023/12/13 02:16:53;;;;;;;63.58;31.42;;;;;;;2.22;96.78;99597.00;5101748;28;20058;-72
2023/12/13 02:19:19;;;;;;;64.68;34.08;;;;;;;2.22;97.10;99601.50;5118547;28;20059;-73
2023/12/13 02:21:46;;;;;;;62.50;32.70;;;;;;;2.19;96.58;99591.91;5100052;28;20422;-72
2023/12/13 02:24:13;;;;;;;70.50;34.13;;;;;;;2.19;96.93;99591.03;5116522;28;20082;-74
2023/12/13 02:26:41;;;;;;;63.72;32.78;;;;;;;2.20;97.19;99582.03;5117113;28;20047;-71
2023/12/13 02:29:09;;;;;;;65.40;33.03;;;;;;;2.20;97.19;99569.53;5116473;28;20055;-73
2023/12/13 02:31:37;;;;;;;68.00;34.08;;;;;;;2.20;97.66;99571.34;5116019;28;20060;-71
2023/12/13 02:34:03;;;;;;;71.28;34.05;;;;;;;2.22;97.28;99567.59;5116010;28;20051;-70
2023/12/13 02:36:30;;;;;;;66.43;33.58;;;;;;;2.20;97.68;99566.84;5115823;28;20048;-73
2023/12/13 02:38:57;;;;;;;66.75;34.33;;;;;;;2.21;97.74;99557.84;5116192;28;20072;-72
2023/12/13 02:41:24;;;;;;;69.32;34.00;;;;;;;2.18;97.50;99551.88;5117411;28;20101;-71
2023/12/13 02:43:51;;;;;;;72.53;34.78;;;;;;;2.18;97.76;99552.75;5114009;28;20048;-71
2023/12/13 02:46:17;;;;;;;71.30;35.10;;;;;;;2.15;98.12;99545.75;5112750;28;20118;-71
2023/12/13 02:48:44;;;;;;;70.13;34.80;;;;;;;2.15;98.46;99542.22;5112954;28;20047;-72
2023/12/13 02:51:11;;;;;;;72.85;33.58;;;;;;;2.18;98.10;99542.03;5112790;28;20047;-72
2023/12/13 02:53:37;;;;;;;71.40;35.25;;;;;;;2.13;98.06;99538.81;5105692;28;20453;-72
2023/12/13 02:56:04;;;;;;;67.32;34.88;;;;;;;2.16;98.11;99538.59;5104437;28;20048;-72
2023/12/13 02:58:30;;;;;;;64.50;34.25;;;;;;;2.13;98.35;99528.13;5113003;28;20044;-72
2023/12/13 03:00:58;;;;;;;69.95;33.67;;;;;;;2.15;98.26;99526.19;5112584;28;20462;-72
2023/12/13 03:03:25;;;;;;;68.15;35.30;;;;;;;2.20;98.42;99545.44;5095367;28;20071;-72
2023/12/13 03:05:51;;;;;;;67.40;35.05;;;;;;;2.23;98.38;99550.56;5112375;28;20513;-72
2023/12/13 03:08:18;;;;;;;68.65;36.63;;;;;;;2.26;98.48;99550.38;5112719;28;20048;-72
2023/12/13 03:10:45;;;;;;;77.78;36.88;;;;;;;2.26;98.24;99541.47;5112660;28;20048;-72
2023/12/13 03:13:11;;;;;;;70.90;36.63;;;;;;;2.28;98.33;99543.06;5112310;28;20051;-72
2023/12/13 03:15:39;;;;;;;72.28;36.47;;;;;;;2.34;98.18;99545.28;5112745;28;20044;-72
2023/12/13 03:18:05;;;;;;;64.95;35.88;;;;;;;2.31;98.29;99540.16;5094581;28;20093;-71
2023/12/13 03:20:32;;;;;;;81.95;37.75;;;;;;;2.30;98.11;99538.47;5112677;28;20043;-71
2023/12/13 03:22:59;;;;;;;74.40;37.65;;;;;;;2.33;98.59;99537.38;5112489;28;20522;-71
2023/12/13 03:25:25;;;;;;;73.35;37.15;;;;;;;2.32;98.23;99527.63;5111630;28;20046;-72
2023/12/13 03:27:52;;;;;;;72.50;37.03;;;;;;;2.30;98.52;99525.06;5112796;28;20497;-72
2023/12/13 03:30:18;;;;;;;72.43;37.22;;;;;;;2.30;98.45;99527.75;5112106;28;20551;-71
2023/12/13 03:32:45;;;;;;;79.68;38.40;;;;;;;2.31;98.40;99524.09;5111978;28;20040;-71
2023/12/13 03:35:14;;;;;;;76.03;38.38;;;;;;;2.29;98.50;99512.66;5112091;28;20052;-70
2023/12/13 03:37:42;;;;;;;92.28;41.70;;;;;;;2.34;98.61;99515.84;5112078;28;20062;-70
2023/12/13 03:40:10;;;;;;;74.35;38.83;;;;;;;2.34;98.55;99510.50;5111967;28;20052;-71
2023/12/13 03:42:38;;;;;;;79.90;39.25;;;;;;;2.35;98.55;99508.66;5111773;28;20475;-71
2023/12/13 03:45:05;;;;;;;80.43;38.72;;;;;;;2.33;98.43;99503.44;5111767;28;20071;-70
2023/12/13 03:47:32;;;;;;;80.63;38.83;;;;;;;2.36;98.77;99497.03;5111901;28;20072;-71
2023/12/13 03:49:59;;;;;;;74.95;37.38;;;;;;;2.39;98.54;99492.28;5111886;28;20549;-70
2023/12/13 03:52:26;;;;;;;77.25;39.63;;;;;;;2.37;98.67;99491.56;5112068;28;20127;-71
2023/12/13 03:54:52;;;;;;;72.13;37.72;;;;;;;2.41;98.55;99492.16;5104783;28;20044;-70
2023/12/13 03:57:19;;;;;;;77.50;38.08;;;;;;;2.43;98.64;99485.72;5111090;28;20044;-71
2023/12/13 03:59:45;;;;;;;79.45;38.40;;;;;;;2.47;98.29;99483.69;5111268;28;20048;-70
2023/12/13 04:02:12;;;;;;;83.63;37.22;;;;;;;2.47;98.40;99489.06;5111335;28;20069;-71
2023/12/13 04:04:38;;;;;;;83.35;37.97;;;;;;;2.49;98.60;99491.59;5111758;28;20048;-71
2023/12/13 04:07:08;;;;;;;80.07;38.88;;;;;;;2.50;98.08;99488.81;5093051;28;20054;-71
2023/12/13 04:09:34;;;;;;;70.47;36.33;;;;;;;2.54;98.29;99490.31;5093449;28;20051;-70
2023/12/13 04:12:02;;;;;;;73.03;36.42;;;;;;;2.55;98.36;99485.81;5111142;28;20051;-71
2023/12/13 04:14:29;;;;;;;83.43;37.50;;;;;;;2.62;98.36;99497.75;5111473;28;20047;-71
2023/12/13 04:16:55;;;;;;;74.47;35.15;;;;;;;2.69;98.15;99494.50;5111790;28;20047;-71
2023/12/13 04:19:22;;;;;;;80.80;35.33;;;;;;;2.65;97.75;99484.16;5111810;28;20062;-72
2023/12/13 04:21:48;;;;;;;70.78;35.85;;;;;;;2.69;97.90;99493.63;5111441;28;20096;-72
2023/12/13 04:24:15;;;;;;;76.47;36.38;;;;;;;2.60;97.77;99487.16;5111828;28;20571;-72
2023/12/13 04:26:42;;;;;;;71.78;36.83;;;;;;;2.62;97.46;99489.72;5112124;28;20039;-71
2023/12/13 04:29:08;;;;;;;76.55;36.88;;;;;;;2.62;97.75;99476.31;5112442;28;20119;-72
2023/12/13 04:31:35;;;;;;;79.47;36.35;;;;;;;2.63;97.84;99488.72;5112016;28;20040;-72
2023/12/13 04:34:03;;;;;;;73.65;36.88;;;;;;;2.65;98.14;99484.16;5093403;28;20487;-71
2023/12/13 04:36:30;;;;;;;82.15;37.10;;;;;;;2.64;97.77;99475.25;5109895;28;20485;-71
2023/12/13 04:38:57;;;;;;;76.03;35.92;;;;;;;2.68;98.15;99481.22;5111088;27;20100;-69
2023/12/13 04:41:24;;;;;;;75.88;37.17;;;;;;;2.70;98.35;99474.78;5111264;28;20048;-69
2023/12/13 04:43:51;;;;;;;80.75;37.63;;;;;;;2.71;98.09;99478.31;5111235;28;20093;-70
2023/12/13 04:46:18;;;;;;;69.88;35.78;;;;;;;2.83;98.19;99476.53;5111108;28;20044;-69
2023/12/13 04:48:44;;;;;;;66.30;35.60;;;;;;;2.81;98.10;99475.78;5110613;28;20057;-69
2023/12/13 04:51:11;;;;;;;74.70;35.13;;;;;;;2.74;98.19;99470.06;5092816;28;20158;-67
2023/12/13 04:53:37;;;;;;;73.10;36.85;;;;;;;2.75;98.19;99471.75;5110712;28;20044;-67
2023/12/13 04:56:04;;;;;;;81.30;36.80;;;;;;;2.75;98.36;99470.91;5110898;28;20052;-66
2023/12/13 04:58:31;;;;;;;84.68;37.38;;;;;;;2.78;98.45;99463.50;5110487;28;20043;-66
2023/12/13 05:00:59;;;;;;;86.65;39.30;;;;;;;2.73;98.35;99465.69;5110260;28;20051;-65
2023/12/13 05:03:27;;;;;;;76.25;37.25;;;;;;;2.75;98.69;99470.91;5111321;28;20522;-67
2023/12/13 05:05:54;;;;;;;78.07;38.80;;;;;;;2.74;98.69;99464.72;5111000;28;20047;-68
2023/12/13 05:08:21;;;;;;;83.93;38.85;;;;;;;2.75;98.72;99461.06;5110818;28;20082;-65
2023/12/13 05:10:47;;;;;;;81.70;38.88;;;;;;;2.78;98.61;99460.81;5114797;28;20051;-66
2023/12/13 05:13:14;;;;;;;78.60;37.35;;;;;;;2.78;98.61;99455.47;5114749;28;20048;-68
2023/12/13 05:15:40;;;;;;;81.13;37.72;;;;;;;2.77;98.47;99464.47;5114853;28;20058;-67
2023/12/13 05:18:07;;;;;;;75.78;37.92;;;;;;;2.74;98.44;99458.50;5115079;28;20051;-67
2023/12/13 05:20:34;;;;;;;81.63;40.38;;;;;;;2.73;98.74;99449.63;5115264;28;20113;-68
2023/12/13 05:23:00;;;;;;;82.68;38.28;;;;;;;2.73;98.82;99452.28;5114502;28;20040;-66
2023/12/13 05:25:28;;;;;;;85.95;39.95;;;;;;;2.78;98.98;99452.78;5114853;28;20044;-68
2023/12/13 05:27:54;;;;;;;85.38;39.72;;;;;;;2.77;98.73;99452.91;5114949;28;20047;-68
2023/12/13 05:30:23;;;;;;;79.82;39.17;;;;;;;2.78;98.59;99455.47;5114171;28;20044;-67
2023/12/13 05:32:51;;;;;;;85.70;39.42;;;;;;;2.76;98.82;99452.06;5114829;28;20082;-67
2023/12/13 05:35:18;;;;;;;88.43;40.33;;;;;;;2.74;98.81;99445.13;5114511;28;20055;-67
2023/12/13 05:37:44;;;;;;;88.55;41.38;;;;;;;2.76;99.07;99438.66;5114513;28;20399;-67
2023/12/13 05:40:12;;;;;;;79.32;39.55;;;;;;;2.77;98.95;99440.38;5114055;28;20495;-66
2023/12/13 05:42:40;;;;;;;91.10;40.42;;;;;;;2.75;98.74;99439.63;5114431;28;20054;-66
2023/12/13 05:45:06;;;;;;;90.38;41.03;;;;;;;2.77;98.95;99443.03;5114248;28;20104;-66
2023/12/13 05:47:33;;;;;;;87.68;41.45;;;;;;;2.92;98.41;99447.22;5114347;28;20043;-67
2023/12/13 05:50:00;;;;;;;78.53;39.65;;;;;;;2.93;98.51;99446.25;5114220;28;20391;-68
2023/12/13 05:52:27;;;;;;;82.53;39.33;;;;;;;2.96;98.50;99442.47;5115096;28;20047;-68
2023/12/13 05:54:54;;;;;;;89.05;39.63;;;;;;;2.89;98.68;99441.25;5107237;28;20044;-68
2023/12/13 05:57:20;;;;;;;77.43;39.42;;;;;;;2.84;98.71;99444.28;5114164;28;20044;-67
2023/12/13 05:59:47;;;;;;;85.85;40.28;;;;;;;2.84;98.50;99449.66;5114202;28;20093;-66
2023/12/13 06:02:13;;;;;;;81.60;38.92;;;;;;;2.94;98.65;99445.28;5114060;28;20047;-65
2023/12/13 06:04:42;;;;;;;73.95;38.88;;;;;;;3.14;98.45;99448.22;5113944;28;20097;-65
2023/12/13 06:07:10;;;;;;;86.38;38.72;;;;;;;2.95;98.33;99452.34;5113959;28;20092;-65
2023/12/13 06:09:40;;;;;;;74.30;37.83;;;;;;;3.06;98.30;99443.47;5114075;28;20044;-65
2023/12/13 06:12:07;;;;;;;85.88;38.35;;;;;;;3.12;98.31;99447.50;5113291;28;20105;-65
2023/12/13 06:14:34;;;;;;;78.50;39.60;;;;;;;3.17;98.04;99448.84;5113804;28;20468;-65
2023/12/13 06:17:00;;;;;;;78.25;37.08;;;;;;;3.14;97.96;99442.88;5113669;28;20092;-65
2023/12/13 06:19:29;;;;;;;81.20;37.55;;;;;;;3.07;98.06;99444.31;5114076;28;20051;-65
2023/12/13 06:21:56;;;;;;;74.85;38.03;;;;;;;3.15;98.20;99442.75;5112673;28;20059;-67
2023/12/13 06:24:23;;;;;;;70.28;37.30;;;;;;;3.24;97.90;99435.81;5113427;28;20044;-65
2023/12/13 06:26:49;;;;;;;80.93;40.35;;;;;;;3.29;97.99;99433.66;5095347;28;20066;-66
2023/12/13 06:29:16;;;;;;;76.43;36.47;;;;;;;3.26;97.80;99434.72;5113036;28;20576;-66
2023/12/13 06:31:43;;;;;;;76.60;38.10;;;;;;;3.18;97.95;99437.16;5113485;28;20093;-65
2023/12/13 06:34:09;;;;;;;67.47;35.63;;;;;;;3.25;97.66;99432.16;5113028;28;20486;-65
2023/12/13 06:36:36;;;;;;;69.95;35.58;;;;;;;3.17;97.83;99439.94;5113260;28;20461;-65
2023/12/13 06:39:04;;;;;;;77.95;37.35;;;;;;;3.25;97.75;99435.69;5113209;28;20051;-65
2023/12/13 06:41:31;;;;;;;62.17;32.67;;;;;;;3.08;97.91;99432.63;5113201;28;20065;-65
2023/12/13 06:43:57;;;;;;;67.78;33.92;;;;;;;3.11;98.46;99430.59;5113271;27;20048;-66
2023/12/13 06:46:24;;;;;;;76.30;34.85;;;;;;;3.17;98.65;99432.75;5113384;28;20457;-65
2023/12/13 06:48:53;;;;;;;66.95;35.30;;;;;;;3.11;98.26;99427.06;5112807;28;20062;-66
2023/12/13 06:51:20;;;;;;;61.75;34.17;;;;;;;3.10;98.74;99428.88;5112739;28;20535;-65
2023/12/13 06:53:46;;;;;;;74.10;35.72;;;;;;;3.05;98.54;99425.69;5112697;28;20040;-65
2023/12/13 06:56:13;;;;;;;71.57;34.15;;;;;;;3.04;98.83;99428.50;5112726;28;20090;-65
2023/12/13 06:58:39;;;;;;;62.88;33.38;;;;;;;3.11;99.01;99424.38;5112556;28;20122;-64
2023/12/13 07:01:06;;;;;;;70.63;34.30;;;;;;;3.19;99.23;99435.34;5112767;28;20090;-64
2023/12/13 07:03:33;;;;;;;55.50;29.98;;;;;;;3.31;99.28;99436.19;5112954;28;20051;-66
2023/12/13 07:06:02;;;;;;;67.10;33.60;;;;;;;3.34;99.00;99436.81;5112568;28;20056;-66
2023/12/13 07:08:29;;;;;;;62.95;33.15;;;;;;;3.36;98.85;99432.16;5112552;28;20074;-64
2023/12/13 07:10:56;;;;;;;58.35;30.88;;;;;;;3.42;98.73;99436.19;5113021;28;20054;-64
2023/12/13 07:13:22;;;;;;;52.90;29.15;;;;;;;3.42;98.80;99449.59;5112534;28;20043;-64
2023/12/13 07:15:49;;;;;;;51.92;28.50;;;;;;;3.56;98.92;99450.22;5112303;28;20126;-67
2023/12/13 07:18:15;;;;;;;53.72;28.63;;;;;;;3.64;98.34;99446.91;5112256;28;20047;-64
2023/12/13 07:20:42;;;;;;;48.42;28.52;;;;;;;3.56;98.37;99452.91;5112253;28;20043;-66
2023/12/13 07:23:09;;;;;;;47.33;27.17;;;;;;;3.55;98.15;99448.50;5112441;28;20493;-66
2023/12/13 07:25:36;;;;;;;53.45;28.77;;;;;;;3.53;98.29;99453.13;5112047;28;20070;-66
2023/12/13 07:28:03;;;;;;;49.72;27.25;;;;;;;3.57;98.16;99459.97;5112205;28;20051;-66
2023/12/13 07:30:30;;;;;;;52.42;28.33;;;;;;;3.52;98.40;99455.94;5112305;28;20128;-67
2023/12/13 07:32:56;;;;;;;44.13;26.75;;;;;;;3.45;98.17;99454.72;5112071;28;20051;-66
2023/12/13 07:35:23;;;;;;;46.70;26.55;;;;;;;3.54;98.44;99454.84;5111853;28;20063;-65
2023/12/13 07:37:50;;;;;;;49.05;28.35;;;;;;;3.53;98.36;99452.28;5111716;28;20123;-66
2023/12/13 07:40:17;;;;;;;48.13;27.85;;;;;;;3.49;98.16;99453.50;5111632;28;20097;-65
2023/12/13 07:42:43;;;;;;;47.28;27.40;;;;;;;3.43;98.54;99449.47;5112156;28;20050;-66
2023/12/13 07:45:11;;;;;;;57.45;30.15;;;;;;;3.38;98.52;99453.50;5112385;28;20093;-66
2023/12/13 07:47:38;;;;;;;49.88;27.02;;;;;;;3.48;98.61;99455.34;5112074;28;20126;-66
2023/12/13 07:50:06;;;;;;;48.45;27.23;;;;;;;3.55;98.61;99456.53;5112060;28;20167;-68
2023/12/13 07:52:33;;;;;;;47.00;26.63;;;;;;;3.51;98.45;99452.41;5111907;28;20138;-68
2023/12/13 07:55:00;;;;;;;59.30;30.20;;;;;;;3.47;98.69;99453.63;5111644;28;20563;-68
2023/12/13 07:57:27;;;;;;;50.25;26.58;;;;;;;3.75;98.29;99456.81;5112108;28;20048;-68
2023/12/13 07:59:53;;;;;;;46.17;27.27;;;;;;;3.61;98.18;99462.41;5111679;28;20453;-68
2023/12/13 08:02:22;;;;;;;48.53;27.38;;;;;;;3.49;98.46;99457.03;5111452;28;20494;-67
2023/12/13 08:04:52;;;;;;;51.28;26.52;;;;;;;3.47;98.64;99458.16;5111599;28;20047;-68
2023/12/13 08:07:19;;;;;;;54.60;28.20;;;;;;;3.43;98.70;99459.34;5111453;28;20047;-69
2023/12/13 08:09:46;;;;;;;54.58;29.70;;;;;;;3.44;98.92;99453.00;5111308;28;20054;-68
2023/12/13 08:12:13;;;;;;;51.28;28.67;;;;;;;3.38;99.04;99449.00;5111406;28;20461;-68
2023/12/13 08:14:39;;;;;;;58.92;30.75;;;;;;;3.43;98.97;99459.34;5110989;28;20080;-68
2023/12/13 08:17:08;;;;;;;64.85;29.35;;;;;;;3.41;98.96;99453.25;5111232;28;20048;-68
2023/12/13 08:19:36;;;;;;;62.88;31.48;;;;;;;3.42;99.01;99452.28;5111060;28;20071;-67
2023/12/13 08:22:03;;;;;;;68.43;34.10;;;;;;;3.39;99.19;99447.19;5110970;28;20047;-67
2023/12/13 08:24:30;;;;;;;65.47;34.55;;;;;;;3.41;99.24;99451.44;5110923;28;20047;-68
2023/12/13 08:26:56;;;;;;;72.25;36.28;;;;;;;3.38;99.54;99459.72;5111128;28;20084;-67
2023/12/13 08:29:23;;;;;;;66.50;35.42;;;;;;;3.43;98.97;99456.66;5111082;28;20050;-67
2023/12/13 08:31:49;;;;;;;73.72;39.15;;;;;;;3.43;99.11;99454.84;5111297;28;20479;-67
2023/12/13 08:34:16;;;;;;;73.57;38.53;;;;;;;3.31;99.10;99458.50;5110542;28;20051;-65
2023/12/13 08:36:43;;;;;;;76.45;40.70;;;;;;;3.33;99.33;99456.53;5108448;28;20043;-65
2023/12/13 08:39:09;;;;;;;77.93;38.55;;;;;;;3.31;99.40;99461.16;5111269;28;20047;-67
2023/12/13 08:41:36;;;;;;;77.57;39.03;;;;;;;3.27;99.31;99462.38;5111107;28;20047;-67
2023/12/13 08:44:03;;;;;;;77.05;39.60;;;;;;;3.28;99.62;99461.38;5110792;28;20047;-66
2023/12/13 08:46:29;;;;;;;84.93;41.00;;;;;;;3.33;99.47;99461.03;5111069;28;20095;-66
2023/12/13 08:48:56;;;;;;;81.63;40.72;;;;;;;3.37;99.56;99471.38;5111943;28;20089;-66
2023/12/13 08:51:23;;;;;;;79.55;39.17;;;;;;;3.39;99.32;99471.28;5111231;28;20031;-66
2023/12/13 08:53:54;;;;;;;80.07;40.15;;;;;;;3.33;99.41;99469.94;5110943;28;20402;-68
2023/12/13 08:56:21;;;;;;;83.63;40.63;;;;;;;3.36;99.39;99469.69;5092101;28;20054;-65
2023/12/13 08:58:48;;;;;;;88.35;43.08;;;;;;;3.31;99.35;99471.91;5111056;28;20062;-68
2023/12/13 09:01:14;;;;;;;89.18;43.22;;;;;;;3.34;99.56;99463.59;5110978;28;20108;-68
2023/12/13 09:03:43;;;;;;;96.40;43.78;;;;;;;3.32;99.66;99476.28;5111129;28;20047;-66
2023/12/13 09:06:10;;;;;;;91.90;42.88;;;;;;;3.32;99.33;99476.28;5111150;28;20159;-68
2023/12/13 09:08:37;;;;;;;90.72;44.40;;;;;;;3.37;99.40;99476.75;5110863;28;20491;-67
2023/12/13 09:11:03;;;;;;;93.80;43.92;;;;;;;3.34;99.33;99479.69;5110665;28;20438;-67
2023/12/13 09:13:30;;;;;;;92.65;43.97;;;;;;;3.38;99.60;99480.31;5110511;28;20047;-68
2023/12/13 09:15:57;;;;;;;99.55;45.35;;;;;;;3.40;99.67;99475.69;5111094;28;20460;-67
2023/12/13 09:18:23;;;;;;;95.40;43.85;;;;;;;3.38;99.34;99481.16;5110631;28;20043;-65
2023/12/13 09:20:50;;;;;;;101.13;43.40;;;;;;;3.51;99.41;99479.22;5111002;28;20059;-68
2023/12/13 09:23:23;;;;;;;88.47;42.63;;;;;;;3.28;99.29;99485.50;5110576;28;20161;-66
2023/12/13 09:25:51;;;;;;;113.38;48.33;;;;;;;3.31;99.39;99477.25;5110880;28;20066;-70
2023/12/13 09:28:19;;;;;;;106.40;47.47;;;;;;;3.34;99.27;99482.34;5109236;28;20464;-69
2023/12/13 09:30:46;;;;;;;118.72;50.03;;;;;;;3.31;99.48;99479.94;5110409;28;20043;-70
2023/12/13 09:33:13;;;;;;;110.40;49.08;;;;;;;3.38;99.76;99486.53;5110397;28;20052;-69
2023/12/13 09:35:41;;;;;;;110.95;48.53;;;;;;;3.40;99.48;99484.56;5109972;28;20043;-69
2023/12/13 09:38:08;;;;;;;109.18;47.92;;;;;;;3.42;99.38;99489.81;5110466;28;20097;-73
2023/12/13 09:40:36;;;;;;;104.43;47.70;;;;;;;3.43;99.63;99483.47;5110190;28;20047;-69
2023/12/13 09:43:03;;;;;;;97.45;44.10;;;;;;;3.43;99.47;99494.19;5110542;28;20071;-71
2023/12/13 09:45:31;;;;;;;99.55;45.80;;;;;;;3.36;99.35;99493.81;5109298;28;20112;-71
2023/12/13 09:47:58;;;;;;;106.00;46.50;;;;;;;3.32;99.26;99494.19;5109543;28;20051;-71
2023/12/13 09:50:26;;;;;;;102.63;46.47;;;;;;;3.36;99.59;99496.50;5110562;28;20075;-71
2023/12/13 09:52:55;;;;;;;96.10;45.45;;;;;;;3.33;99.30;99499.41;5109709;28;20118;-69
2023/12/13 09:55:22;;;;;;;111.65;47.67;;;;;;;3.39;99.53;99487.38;5105644;28;20491;-72
2023/12/13 09:57:49;;;;;;;105.60;46.78;;;;;;;3.33;99.63;99483.34;5114781;28;20517;-74
2023/12/13 10:00:16;;;;;;;104.18;46.88;;;;;;;3.37;99.38;99484.78;5114091;28;20126;-71
2023/12/13 10:02:45;;;;;;;102.85;47.20;;;;;;;3.34;99.50;99489.53;5113888;28;20043;-70
2023/12/13 10:05:11;;;;;;;100.10;45.83;;;;;;;3.37;99.58;99490.16;5113403;28;20414;-69
2023/12/13 10:07:40;;;;;;;97.10;45.90;;;;;;;3.33;99.64;99488.69;5113690;28;20043;-71
2023/12/13 10:10:07;;;;;;;108.35;46.17;;;;;;;3.34;99.46;99495.75;5113800;28;20063;-71
2023/12/13 10:12:35;;;;;;;92.15;45.35;;;;;;;3.29;99.55;99493.47;5114001;28;20051;-71
2023/12/13 10:15:11;;;;;;;108.05;45.25;;;;;;;3.33;99.30;99487.84;5113526;28;20141;-68
2023/12/13 10:17:40;;;;;;;95.63;42.90;;;;;;;3.38;99.51;99486.53;5113416;28;20036;-71
2023/12/13 10:20:10;;;;;;;95.95;44.78;;;;;;;3.36;99.40;99484.91;5113334;28;20093;-71
2023/12/13 10:22:38;;;;;;;97.22;44.03;;;;;;;3.38;99.27;99483.84;5113185;28;20047;-70
2023/12/13 10:25:06;;;;;;;95.30;43.60;;;;;;;3.42;99.39;99482.63;5113421;28;20052;-70
2023/12/13 10:27:32;;;;;;;98.32;44.40;;;;;;;3.40;99.43;99479.22;5113298;28;20047;-70
2023/12/13 10:30:01;;;;;;;90.57;42.45;;;;;;;3.61;99.34;99482.00;5113446;28;20047;-70
2023/12/13 10:32:28;;;;;;;90.70;42.28;;;;;;;3.60;99.42;99484.81;5113352;28;20448;-69
2023/12/13 10:34:56;;;;;;;94.30;41.63;;;;;;;3.54;99.03;99487.00;5113668;28;20055;-70
2023/12/13 10:37:27;;;;;;;94.20;43.25;;;;;;;3.63;99.28;99482.75;5113053;28;20036;-65
2023/12/13 10:39:56;;;;;;;88.07;41.87;;;;;;;3.74;99.11;99482.72;5113200;28;20043;-68
2023/12/13 10:42:24;;;;;;;88.40;41.83;;;;;;;3.95;98.78;99473.97;5113397;28;20348;-67
2023/12/13 10:44:52;;;;;;;87.47;40.15;;;;;;;4.03;98.34;99472.38;5095147;28;20047;-68
2023/12/13 10:47:24;;;;;;;80.60;41.17;;;;;;;4.06;98.28;99474.78;5112736;28;20059;-69
2023/12/13 10:49:53;;;;;;;85.63;42.38;;;;;;;3.99;98.30;99476.25;5111777;28;20086;-67
2023/12/13 10:52:21;;;;;;;87.35;40.30;;;;;;;3.81;98.20;99478.59;5112470;28;20044;-69
2023/12/13 10:54:48;;;;;;;98.53;43.47;;;;;;;3.73;98.70;99474.81;5112345;28;20131;-71
2023/12/13 10:57:15;;;;;;;92.95;43.40;;;;;;;3.91;98.42;99478.69;5112818;28;20047;-72
2023/12/13 10:59:44;;;;;;;82.65;40.42;;;;;;;3.93;98.36;99475.88;5112822;28;20471;-71
2023/12/13 11:02:18;;;;;;;93.60;40.67;;;;;;;3.90;98.18;99466.28;5112923;28;20047;-68
2023/12/13 11:04:45;;;;;;;103.22;45.30;;;;;;;3.75;98.53;99470.22;5112688;27;20035;-71
2023/12/13 11:07:12;;;;;;;101.55;45.08;;;;;;;3.73;98.85;99469.44;5112511;28;20071;-68
2023/12/13 11:09:52;;;;;;;97.78;44.90;;;;;;;3.71;98.87;99468.72;5112547;28;20043;-68
2023/12/13 11:12:18;;;;;;;100.15;46.00;;;;;;;3.68;99.04;99477.03;5112326;28;20116;-68
2023/12/13 11:14:50;;;;;;;113.45;48.25;;;;;;;3.65;99.24;99477.25;5112391;28;20040;-68
2023/12/13 11:17:18;;;;;;;112.22;46.83;;;;;;;3.67;99.29;99475.31;5112405;28;20066;-71
2023/12/13 11:19:46;;;;;;;106.75;47.58;;;;;;;3.67;99.11;99478.00;5112362;28;20043;-70
2023/12/13 11:22:13;;;;;;;115.07;47.28;;;;;;;3.70;99.56;99486.66;5112899;28;20048;-68
2023/12/13 11:24:41;;;;;;;106.10;46.92;;;;;;;3.84;99.23;99482.88;5112670;28;20516;-68
2023/12/13 11:27:10;;;;;;;101.55;46.80;;;;;;;4.08;98.92;99480.88;5094449;28;20048;-67